To NAV CANADA Home Page Login to a new session Search on AWWS site Disclaimer Vers la page française équivalente Tips FAQ What's new on the site To the Forecasts and Observations / NOTAM section To "File a Flight Plan" website Publications and other links Update of the User's profile FIC Telephone Numbers My Weather Data Folder Route Weather Data Regional Weather Data Local Weather Data To the Forecasts and Observations / NOTAM section
Request Generated 10/19/2018 at 15:27:03 UTC . Weather information available at that time is displayed.

METAR/TAF

WRIGLEY/NT    

METAR CYWY 191500Z 15010KT 1SM -SN BR OVC007 M01/M02 A3023 RMK SF8 SLP250=
SPECI CYWY 191454Z 15010KT 1SM -SN BR OVC007 M01/M02 A3024 RMK SF8 SLP252=
SPECI CYWY 191414Z 14010KT 15SM BKN008 OVC013 M01/M02 A3025 RMK SF6SC2 SLP257=
METAR CYWY 191400Z 14010KT 15SM SCT006 OVC013 M01/M02 A3025 RMK SF4SC4 1.6/-2.3/TR/0 SNW CVR/NIL SLP258=
LWIS CYWY 191300Z AUTO 14010KT M01/M02 A3026=

CYWY - No TAF is issued for this station

Your time UTC time
Weather data provided by Environment Canada and NAV CANADA